Terminal Aerodrome Forecast
Issued by NWS Charleston, WV

Current Version | Previous Version | Graphics & Text | Print | Product List | Glossary On
Versions: 1 2 3 4 5 6 7 8 9 10 11 12 13 14 15 16 17 18 19 20 21 22 23 24 25 26 27
000
FTUS41 KRLX 251700
TAFPKB
TAF
KPKB 251730Z 2518/2618 13004KT P6SM FEW045
     FM252300 00000KT P6SM FEW250
     FM260800 00000KT 5SM BR SKC
     FM260900 00000KT 3/4SM BR SCT001
     FM261300 00000KT 2SM BR FEW002
     FM261400 00000KT P6SM FEW045=

USA.gov is the U.S. government's official web portal to all federal, state and local government web resources and services.